sensor_id;sensor_type;location;lat;lon;timestamp;pressure;altitude;pressure_sealevel;temperature;humidity
61710;BME280;73500;51.494;5.386;2024-01-27T00:00:32;103412.78;;;18.56;38.33
61710;BME280;73500;51.494;5.386;2024-01-27T00:02:58;103382.69;;;18.39;38.71
61710;BME280;73500;51.494;5.386;2024-01-27T00:05:23;103369.59;;;18.36;38.22
61710;BME280;73500;51.494;5.386;2024-01-27T00:07:48;103387.91;;;18.41;38.40
61710;BME280;73500;51.494;5.386;2024-01-27T00:10:13;103385.06;;;18.45;38.45
61710;BME280;73500;51.494;5.386;2024-01-27T00:12:40;103373.94;;;18.37;38.28
61710;BME280;73500;51.494;5.386;2024-01-27T00:15:07;103380.81;;;18.41;38.33
61710;BME280;73500;51.494;5.386;2024-01-27T00:17:33;103393.00;;;18.45;38.03
61710;BME280;73500;51.494;5.386;2024-01-27T00:19:59;103374.69;;;18.41;38.25
61710;BME280;73500;51.494;5.386;2024-01-27T00:22:24;103365.03;;;18.40;38.18
61710;BME280;73500;51.494;5.386;2024-01-27T00:24:50;103349.78;;;18.26;37.99
61710;BME280;73500;51.494;5.386;2024-01-27T00:27:15;103360.16;;;18.30;37.90
61710;BME280;73500;51.494;5.386;2024-01-27T00:29:41;103359.44;;;18.27;38.19
61710;BME280;73500;51.494;5.386;2024-01-27T00:32:06;103372.38;;;18.33;37.90
61710;BME280;73500;51.494;5.386;2024-01-27T00:34:31;103381.16;;;18.34;38.01
61710;BME280;73500;51.494;5.386;2024-01-27T00:36:57;103378.81;;;18.26;37.78
61710;BME280;73500;51.494;5.386;2024-01-27T00:39:22;103394.41;;;18.32;37.78
61710;BME280;73500;51.494;5.386;2024-01-27T00:41:47;103395.34;;;18.31;38.09
61710;BME280;73500;51.494;5.386;2024-01-27T00:44:13;103375.66;;;18.18;37.75
61710;BME280;73500;51.494;5.386;2024-01-27T00:46:38;103402.38;;;18.30;37.73
61710;BME280;73500;51.494;5.386;2024-01-27T00:49:03;103380.09;;;18.17;37.54
61710;BME280;73500;51.494;5.386;2024-01-27T00:51:29;103404.44;;;18.24;37.74
61710;BME280;73500;51.494;5.386;2024-01-27T00:53:54;103397.31;;;18.26;37.85
61710;BME280;73500;51.494;5.386;2024-01-27T00:56:19;103403.53;;;18.25;37.58
61710;BME280;73500;51.494;5.386;2024-01-27T00:58:45;103397.78;;;18.15;37.55
61710;BME280;73500;51.494;5.386;2024-01-27T01:01:10;103394.91;;;18.20;37.81
61710;BME280;73500;51.494;5.386;2024-01-27T01:03:35;103400.13;;;18.21;37.46
61710;BME280;73500;51.494;5.386;2024-01-27T01:06:01;103400.25;;;18.18;37.46
61710;BME280;73500;51.494;5.386;2024-01-27T01:08:26;103380.41;;;18.09;37.26
61710;BME280;73500;51.494;5.386;2024-01-27T01:10:51;103410.91;;;18.17;37.23
61710;BME280;73500;51.494;5.386;2024-01-27T01:13:17;103402.41;;;18.08;37.45
61710;BME280;73500;51.494;5.386;2024-01-27T01:15:42;103394.69;;;18.04;37.37
61710;BME280;73500;51.494;5.386;2024-01-27T01:18:07;103399.72;;;18.10;37.25
61710;BME280;73500;51.494;5.386;2024-01-27T01:20:33;103412.66;;;18.16;37.51
61710;BME280;73500;51.494;5.386;2024-01-27T01:22:58;103401.69;;;18.05;37.39
61710;BME280;73500;51.494;5.386;2024-01-27T01:25:23;103403.28;;;18.09;37.19
61710;BME280;73500;51.494;5.386;2024-01-27T01:27:49;103391.19;;;18.03;37.30
61710;BME280;73500;51.494;5.386;2024-01-27T01:30:15;103399.78;;;18.08;37.43
61710;BME280;73500;51.494;5.386;2024-01-27T01:32:42;103388.69;;;18.00;37.16
61710;BME280;73500;51.494;5.386;2024-01-27T01:35:07;103415.59;;;18.08;37.28
61710;BME280;73500;51.494;5.386;2024-01-27T01:37:32;103391.38;;;17.99;36.95
61710;BME280;73500;51.494;5.386;2024-01-27T01:39:57;103402.53;;;18.05;37.30
61710;BME280;73500;51.494;5.386;2024-01-27T01:42:23;103388.13;;;17.92;36.96
61710;BME280;73500;51.494;5.386;2024-01-27T01:44:51;103399.22;;;18.00;37.37
61710;BME280;73500;51.494;5.386;2024-01-27T01:47:16;103383.84;;;17.89;37.36
61710;BME280;73500;51.494;5.386;2024-01-27T01:49:42;103412.25;;;18.05;37.33
61710;BME280;73500;51.494;5.386;2024-01-27T01:52:07;103423.66;;;18.05;37.20
61710;BME280;73500;51.494;5.386;2024-01-27T01:54:33;103413.22;;;18.02;36.84
61710;BME280;73500;51.494;5.386;2024-01-27T01:56:59;103404.75;;;17.94;37.43
61710;BME280;73500;51.494;5.386;2024-01-27T01:59:24;103420.41;;;17.99;37.06
61710;BME280;73500;51.494;5.386;2024-01-27T02:01:50;103397.91;;;17.90;37.13
61710;BME280;73500;51.494;5.386;2024-01-27T02:04:15;103412.38;;;18.02;36.98
61710;BME280;73500;51.494;5.386;2024-01-27T02:06:40;103418.66;;;17.99;36.65
61710;BME280;73500;51.494;5.386;2024-01-27T02:09:06;103404.13;;;17.87;37.30
61710;BME280;73500;51.494;5.386;2024-01-27T02:11:31;103412.56;;;17.97;37.20
61710;BME280;73500;51.494;5.386;2024-01-27T02:13:56;103398.00;;;17.87;37.01
61710;BME280;73500;51.494;5.386;2024-01-27T02:16:22;103407.63;;;17.88;37.07
61710;BME280;73500;51.494;5.386;2024-01-27T02:18:47;103411.88;;;17.92;36.91
61710;BME280;73500;51.494;5.386;2024-01-27T02:21:12;103430.09;;;17.98;36.74
61710;BME280;73500;51.494;5.386;2024-01-27T02:23:38;103423.22;;;17.94;36.88
61710;BME280;73500;51.494;5.386;2024-01-27T02:26:03;103424.09;;;17.94;36.88
61710;BME280;73500;51.494;5.386;2024-01-27T02:28:28;103402.59;;;17.82;36.55
61710;BME280;73500;51.494;5.386;2024-01-27T02:30:57;103428.56;;;17.92;36.54
61710;BME280;73500;51.494;5.386;2024-01-27T02:33:22;103422.56;;;17.89;36.88
61710;BME280;73500;51.494;5.386;2024-01-27T02:35:48;103417.44;;;17.84;36.70
61710;BME280;73500;51.494;5.386;2024-01-27T02:38:13;103401.09;;;17.74;36.54
61710;BME280;73500;51.494;5.386;2024-01-27T02:40:38;103404.47;;;17.78;36.65
61710;BME280;73500;51.494;5.386;2024-01-27T02:43:04;103419.28;;;17.82;36.69
61710;BME280;73500;51.494;5.386;2024-01-27T02:45:29;103426.13;;;17.86;36.64
61710;BME280;73500;51.494;5.386;2024-01-27T02:47:54;103430.50;;;17.87;36.38
61710;BME280;73500;51.494;5.386;2024-01-27T02:50:20;103406.44;;;17.73;36.66
61710;BME280;73500;51.494;5.386;2024-01-27T02:52:45;103410.88;;;17.72;36.71
61710;BME280;73500;51.494;5.386;2024-01-27T02:55:10;103412.38;;;17.78;36.59
61710;BME280;73500;51.494;5.386;2024-01-27T02:57:36;103428.81;;;17.85;36.58
61710;BME280;73500;51.494;5.386;2024-01-27T03:00:01;103418.53;;;17.79;36.42
61710;BME280;73500;51.494;5.386;2024-01-27T03:02:26;103400.38;;;17.71;36.74
61710;BME280;73500;51.494;5.386;2024-01-27T03:04:52;103407.16;;;17.76;37.10
61710;BME280;73500;51.494;5.386;2024-01-27T03:07:17;103414.34;;;17.73;36.75
61710;BME280;73500;51.494;5.386;2024-01-27T03:09:42;103412.63;;;17.72;36.92
61710;BME280;73500;51.494;5.386;2024-01-27T03:12:08;103402.25;;;17.67;36.42
61710;BME280;73500;51.494;5.386;2024-01-27T03:14:33;103426.44;;;17.79;36.51
61710;BME280;73500;51.494;5.386;2024-01-27T03:16:58;103404.88;;;17.67;36.38
61710;BME280;73500;51.494;5.386;2024-01-27T03:19:24;103431.72;;;17.79;36.23
61710;BME280;73500;51.494;5.386;2024-01-27T03:21:49;103430.91;;;17.76;36.31
61710;BME280;73500;51.494;5.386;2024-01-27T03:24:14;103429.31;;;17.72;36.30
61710;BME280;73500;51.494;5.386;2024-01-27T03:26:39;103400.78;;;17.60;36.74
61710;BME280;73500;51.494;5.386;2024-01-27T03:29:05;103428.44;;;17.72;36.51
61710;BME280;73500;51.494;5.386;2024-01-27T03:31:31;103409.59;;;17.59;36.47
61710;BME280;73500;51.494;5.386;2024-01-27T03:33:57;103430.22;;;17.71;36.13
61710;BME280;73500;51.494;5.386;2024-01-27T03:36:23;103434.66;;;17.71;36.07
61710;BME280;73500;51.494;5.386;2024-01-27T03:38:48;103448.63;;;17.73;36.28
61710;BME280;73500;51.494;5.386;2024-01-27T03:41:14;103430.47;;;17.65;36.30
61710;BME280;73500;51.494;5.386;2024-01-27T03:43:39;103423.63;;;17.61;36.12
61710;BME280;73500;51.494;5.386;2024-01-27T03:46:04;103416.72;;;17.57;36.35
61710;BME280;73500;51.494;5.386;2024-01-27T03:48:29;103433.09;;;17.65;36.26
61710;BME280;73500;51.494;5.386;2024-01-27T03:50:55;103413.25;;;17.56;36.19
61710;BME280;73500;51.494;5.386;2024-01-27T03:53:20;103429.56;;;17.66;36.01
61710;BME280;73500;51.494;5.386;2024-01-27T03:55:45;103442.63;;;17.69;35.95
61710;BME280;73500;51.494;5.386;2024-01-27T03:58:11;103430.47;;;17.65;35.76
61710;BME280;73500;51.494;5.386;2024-01-27T04:00:36;103427.03;;;17.63;36.14
61710;BME280;73500;51.494;5.386;2024-01-27T04:03:02;103428.88;;;17.61;36.47
61710;BME280;73500;51.494;5.386;2024-01-27T04:05:29;103423.66;;;17.59;36.66
61710;BME280;73500;51.494;5.386;2024-01-27T04:07:54;103422.16;;;17.52;36.57
61710;BME280;73500;51.494;5.386;2024-01-27T04:10:20;103443.72;;;17.64;36.55
61710;BME280;73500;51.494;5.386;2024-01-27T04:12:46;103430.69;;;17.59;36.74
61710;BME280;73500;51.494;5.386;2024-01-27T04:15:11;103419.59;;;17.51;36.47
61710;BME280;73500;51.494;5.386;2024-01-27T04:17:40;103445.63;;;17.60;36.59
61710;BME280;73500;51.494;5.386;2024-01-27T04:20:06;103426.75;;;17.47;36.71
61710;BME280;73500;51.494;5.386;2024-01-27T04:22:33;103428.56;;;17.47;36.84
61710;BME280;73500;51.494;5.386;2024-01-27T04:24:58;103444.81;;;17.58;36.74
61710;BME280;73500;51.494;5.386;2024-01-27T04:27:23;103445.84;;;17.54;36.80
61710;BME280;73500;51.494;5.386;2024-01-27T04:29:49;103432.84;;;17.49;37.00
61710;BME280;73500;51.494;5.386;2024-01-27T04:32:14;103443.16;;;17.55;36.89
61710;BME280;73500;51.494;5.386;2024-01-27T04:34:39;103440.50;;;17.55;37.03
61710;BME280;73500;51.494;5.386;2024-01-27T04:37:05;103445.06;;;17.52;36.98
61710;BME280;73500;51.494;5.386;2024-01-27T04:39:30;103423.50;;;17.40;37.16
61710;BME280;73500;51.494;5.386;2024-01-27T04:41:56;103451.91;;;17.56;37.10
61710;BME280;73500;51.494;5.386;2024-01-27T04:44:21;103446.81;;;17.51;36.86
61710;BME280;73500;51.494;5.386;2024-01-27T04:46:46;103444.16;;;17.51;37.20
61710;BME280;73500;51.494;5.386;2024-01-27T04:49:12;103443.44;;;17.48;37.34
61710;BME280;73500;51.494;5.386;2024-01-27T04:51:37;103451.34;;;17.48;36.99
61710;BME280;73500;51.494;5.386;2024-01-27T04:54:02;103438.34;;;17.43;37.31
61710;BME280;73500;51.494;5.386;2024-01-27T04:56:28;103436.50;;;17.45;37.32
61710;BME280;73500;51.494;5.386;2024-01-27T04:58:53;103441.69;;;17.48;37.44
61710;BME280;73500;51.494;5.386;2024-01-27T05:01:18;103439.88;;;17.49;37.41
61710;BME280;73500;51.494;5.386;2024-01-27T05:03:44;103446.06;;;17.48;37.48
61710;BME280;73500;51.494;5.386;2024-01-27T05:06:10;103448.66;;;17.49;37.48
61710;BME280;73500;51.494;5.386;2024-01-27T05:08:35;103443.53;;;17.45;37.45
61710;BME280;73500;51.494;5.386;2024-01-27T05:11:01;103443.53;;;17.45;37.54
61710;BME280;73500;51.494;5.386;2024-01-27T05:13:26;103426.41;;;17.33;37.51
61710;BME280;73500;51.494;5.386;2024-01-27T05:15:51;103422.94;;;17.32;37.50
61710;BME280;73500;51.494;5.386;2024-01-27T05:18:17;103425.56;;;17.32;37.22
61710;BME280;73500;51.494;5.386;2024-01-27T05:20:42;103444.72;;;17.37;37.66
61710;BME280;73500;51.494;5.386;2024-01-27T05:23:07;103428.22;;;17.32;37.16
61710;BME280;73500;51.494;5.386;2024-01-27T05:25:33;103457.72;;;17.42;37.45
61710;BME280;73500;51.494;5.386;2024-01-27T05:27:58;103422.13;;;17.30;37.38
61710;BME280;73500;51.494;5.386;2024-01-27T05:30:23;103419.59;;;17.27;37.06
61710;BME280;73500;51.494;5.386;2024-01-27T05:32:49;103443.66;;;17.41;37.11
61710;BME280;73500;51.494;5.386;2024-01-27T05:35:14;103455.88;;;17.44;37.19
61710;BME280;73500;51.494;5.386;2024-01-27T05:37:39;103418.75;;;17.27;37.13
61710;BME280;73500;51.494;5.386;2024-01-27T05:40:06;103421.22;;;17.31;37.31
61710;BME280;73500;51.494;5.386;2024-01-27T05:42:32;103420.41;;;17.29;37.36
61710;BME280;73500;51.494;5.386;2024-01-27T05:44:57;103428.88;;;17.37;37.29
61710;BME280;73500;51.494;5.386;2024-01-27T05:47:22;103401.09;;;17.29;37.71
61710;BME280;73500;51.494;5.386;2024-01-27T05:49:48;103419.19;;;17.38;37.87
61710;BME280;73500;51.494;5.386;2024-01-27T05:52:13;103399.91;;;17.37;37.99
61710;BME280;73500;51.494;5.386;2024-01-27T05:54:40;103428.25;;;17.54;38.08
61710;BME280;73500;51.494;5.386;2024-01-27T05:57:06;103403.09;;;17.46;38.52
61710;BME280;73500;51.494;5.386;2024-01-27T05:59:32;103416.91;;;17.52;38.33
61710;BME280;73500;51.494;5.386;2024-01-27T06:01:57;103416.84;;;17.54;38.74
61710;BME280;73500;51.494;5.386;2024-01-27T06:04:23;103414.03;;;17.58;38.57
61710;BME280;73500;51.494;5.386;2024-01-27T06:06:48;103435.41;;;17.74;38.19
61710;BME280;73500;51.494;5.386;2024-01-27T06:09:13;103424.13;;;17.71;38.23
61710;BME280;73500;51.494;5.386;2024-01-27T06:11:39;103424.59;;;17.81;38.50
61710;BME280;73500;51.494;5.386;2024-01-27T06:14:04;103419.34;;;17.81;38.51
61710;BME280;73500;51.494;5.386;2024-01-27T06:16:30;103404.66;;;17.73;38.40
61710;BME280;73500;51.494;5.386;2024-01-27T06:18:55;103420.06;;;17.84;38.40
61710;BME280;73500;51.494;5.386;2024-01-27T06:21:21;103404.53;;;17.76;38.55
61710;BME280;73500;51.494;5.386;2024-01-27T06:23:46;103419.91;;;17.89;38.74
61710;BME280;73500;51.494;5.386;2024-01-27T06:26:13;103403.56;;;17.79;38.87
61710;BME280;73500;51.494;5.386;2024-01-27T06:28:38;103418.44;;;17.82;38.52
61710;BME280;73500;51.494;5.386;2024-01-27T06:31:04;103432.94;;;17.93;38.88
61710;BME280;73500;51.494;5.386;2024-01-27T06:33:30;103421.66;;;17.90;38.89
61710;BME280;73500;51.494;5.386;2024-01-27T06:35:55;103419.78;;;17.92;38.98
61710;BME280;73500;51.494;5.386;2024-01-27T06:38:20;103420.66;;;17.92;38.80
61710;BME280;73500;51.494;5.386;2024-01-27T06:40:46;103436.19;;;18.00;39.10
61710;BME280;73500;51.494;5.386;2024-01-27T06:43:13;103422.50;;;17.90;39.06
61710;BME280;73500;51.494;5.386;2024-01-27T06:45:39;103423.28;;;17.92;38.91
61710;BME280;73500;51.494;5.386;2024-01-27T06:48:05;103424.16;;;17.93;39.15
61710;BME280;73500;51.494;5.386;2024-01-27T06:50:31;103428.44;;;17.95;39.26
61710;BME280;73500;51.494;5.386;2024-01-27T06:52:57;103431.06;;;17.95;39.01
61710;BME280;73500;51.494;5.386;2024-01-27T06:55:22;103446.50;;;18.06;39.17
61710;BME280;73500;51.494;5.386;2024-01-27T06:57:47;103453.69;;;18.03;39.30
61710;BME280;73500;51.494;5.386;2024-01-27T07:00:13;103458.91;;;18.04;39.12
61710;BME280;73500;51.494;5.386;2024-01-27T07:02:41;103480.63;;;18.11;38.85
61710;BME280;73500;51.494;5.386;2024-01-27T07:05:07;103449.53;;;17.95;38.96
61710;BME280;73500;51.494;5.386;2024-01-27T07:07:33;103469.38;;;18.06;38.92
61710;BME280;73500;51.494;5.386;2024-01-27T07:09:58;103477.19;;;18.09;38.68
61710;BME280;73500;51.494;5.386;2024-01-27T07:12:24;103484.94;;;18.13;38.86
61710;BME280;73500;51.494;5.386;2024-01-27T07:14:50;103480.56;;;18.12;39.15
61710;BME280;73500;51.494;5.386;2024-01-27T07:17:16;103464.13;;;18.06;39.54
61710;BME280;73500;51.494;5.386;2024-01-27T07:19:42;103467.47;;;18.09;39.57
61710;BME280;73500;51.494;5.386;2024-01-27T07:22:07;103445.94;;;17.98;39.92
61710;BME280;73500;51.494;5.386;2024-01-27T07:24:33;103480.56;;;18.12;39.83
61710;BME280;73500;51.494;5.386;2024-01-27T07:27:00;103451.16;;;18.00;39.79
61710;BME280;73500;51.494;5.386;2024-01-27T07:29:26;103479.59;;;18.15;40.07
61710;BME280;73500;51.494;5.386;2024-01-27T07:31:51;103470.31;;;18.05;40.40
61710;BME280;73500;51.494;5.386;2024-01-27T07:34:17;103477.81;;;18.16;40.19
61710;BME280;73500;51.494;5.386;2024-01-27T07:36:43;103483.97;;;18.15;40.12
61710;BME280;73500;51.494;5.386;2024-01-27T07:39:08;103482.28;;;18.13;40.33
61710;BME280;73500;51.494;5.386;2024-01-27T07:41:34;103461.59;;;18.03;40.20
61710;BME280;73500;51.494;5.386;2024-01-27T07:44:13;103482.28;;;18.13;40.43
61710;BME280;73500;51.494;5.386;2024-01-27T07:46:40;103466.81;;;18.04;40.44
61710;BME280;73500;51.494;5.386;2024-01-27T07:49:06;103488.28;;;18.17;40.60
61710;BME280;73500;51.494;5.386;2024-01-27T07:51:32;103491.06;;;18.14;40.72
61710;BME280;73500;51.494;5.386;2024-01-27T07:53:58;103495.47;;;18.13;40.93
61710;BME280;73500;51.494;5.386;2024-01-27T07:56:24;103504.06;;;18.19;41.26
61710;BME280;73500;51.494;5.386;2024-01-27T07:58:49;103497.78;;;18.21;41.53
61710;BME280;73500;51.494;5.386;2024-01-27T08:01:15;103485.66;;;18.17;41.36
61710;BME280;73500;51.494;5.386;2024-01-27T08:03:41;103491.78;;;18.18;41.12
61710;BME280;73500;51.494;5.386;2024-01-27T08:06:07;103483.97;;;18.15;41.31
61710;BME280;73500;51.494;5.386;2024-01-27T08:08:35;103493.34;;;18.23;41.44
61710;BME280;73500;51.494;5.386;2024-01-27T08:11:00;103476.72;;;18.20;41.33
61710;BME280;73500;51.494;5.386;2024-01-27T08:13:25;103474.03;;;18.21;41.42
61710;BME280;73500;51.494;5.386;2024-01-27T08:15:50;103460.34;;;18.11;41.80
61710;BME280;73500;51.494;5.386;2024-01-27T08:18:16;103484.59;;;18.21;42.01
61710;BME280;73500;51.494;5.386;2024-01-27T08:20:41;103488.91;;;18.24;41.99
61710;BME280;73500;51.494;5.386;2024-01-27T08:23:06;103481.91;;;18.23;41.64
61710;BME280;73500;51.494;5.386;2024-01-27T08:25:33;103474.09;;;18.20;41.46
61710;BME280;73500;51.494;5.386;2024-01-27T08:27:58;103480.97;;;18.24;41.68
61710;BME280;73500;51.494;5.386;2024-01-27T08:30:23;103464.47;;;18.19;41.62
61710;BME280;73500;51.494;5.386;2024-01-27T08:32:49;103457.66;;;18.13;41.19
61710;BME280;73500;51.494;5.386;2024-01-27T08:35:14;103471.47;;;18.20;41.38
61710;BME280;73500;51.494;5.386;2024-01-27T08:37:39;103478.34;;;18.24;41.34
61710;BME280;73500;51.494;5.386;2024-01-27T08:40:06;103460.41;;;18.10;41.58
61710;BME280;73500;51.494;5.386;2024-01-27T08:42:31;103472.56;;;18.14;41.32
61710;BME280;73500;51.494;5.386;2024-01-27T08:44:56;103481.47;;;18.11;41.79
61710;BME280;73500;51.494;5.386;2024-01-27T08:47:21;103493.50;;;18.19;41.63
61710;BME280;73500;51.494;5.386;2024-01-27T08:49:47;103488.25;;;18.19;41.91
61710;BME280;73500;51.494;5.386;2024-01-27T08:52:12;103488.25;;;18.19;41.73
61710;BME280;73500;51.494;5.386;2024-01-27T08:54:37;103486.44;;;18.19;41.52
61710;BME280;73500;51.494;5.386;2024-01-27T08:57:03;103488.25;;;18.19;42.16
61710;BME280;73500;51.494;5.386;2024-01-27T08:59:29;103477.06;;;18.12;41.77
61710;BME280;73500;51.494;5.386;2024-01-27T09:01:54;103496.94;;;18.21;41.80
61710;BME280;73500;51.494;5.386;2024-01-27T09:04:19;103510.94;;;18.23;41.91
61710;BME280;73500;51.494;5.386;2024-01-27T09:06:45;103496.28;;;18.16;41.64
61710;BME280;73500;51.494;5.386;2024-01-27T09:09:10;103483.31;;;18.09;41.72
61710;BME280;73500;51.494;5.386;2024-01-27T09:11:37;103513.56;;;18.23;41.75
61710;BME280;73500;51.494;5.386;2024-01-27T09:14:02;103498.78;;;18.19;41.56
61710;BME280;73500;51.494;5.386;2024-01-27T09:16:30;103483.31;;;18.09;41.76
61710;BME280;73500;51.494;5.386;2024-01-27T09:18:55;103507.44;;;18.22;41.80
61710;BME280;73500;51.494;5.386;2024-01-27T09:21:20;103504.25;;;18.14;41.85
61710;BME280;73500;51.494;5.386;2024-01-27T09:23:47;103504.25;;;18.14;41.99
61710;BME280;73500;51.494;5.386;2024-01-27T09:26:13;103521.50;;;18.23;42.02
61710;BME280;73500;51.494;5.386;2024-01-27T09:28:40;103500.81;;;18.12;42.12
61710;BME280;73500;51.494;5.386;2024-01-27T09:31:11;103517.16;;;18.22;42.16
61710;BME280;73500;51.494;5.386;2024-01-27T09:33:37;103511.44;;;18.10;41.98
61710;BME280;73500;51.494;5.386;2024-01-27T09:36:02;103520.94;;;18.15;41.90
61710;BME280;73500;51.494;5.386;2024-01-27T09:38:28;103534.97;;;18.17;41.65
61710;BME280;73500;51.494;5.386;2024-01-27T09:40:54;103535.75;;;18.19;41.69
61710;BME280;73500;51.494;5.386;2024-01-27T09:43:19;103547.88;;;18.23;42.07
61710;BME280;73500;51.494;5.386;2024-01-27T09:45:45;103535.75;;;18.19;42.11
61710;BME280;73500;51.494;5.386;2024-01-27T09:48:12;103537.50;;;18.18;41.85
61710;BME280;73500;51.494;5.386;2024-01-27T09:50:41;103530.81;;;18.09;42.17
61710;BME280;73500;51.494;5.386;2024-01-27T09:53:06;103525.53;;;18.09;42.17
61710;BME280;73500;51.494;5.386;2024-01-27T09:55:34;103529.19;;;18.05;41.99
61710;BME280;73500;51.494;5.386;2024-01-27T09:57:59;103558.44;;;18.23;41.89
61710;BME280;73500;51.494;5.386;2024-01-27T10:00:25;103550.84;;;18.15;42.00
61710;BME280;73500;51.494;5.386;2024-01-27T10:02:53;103550.09;;;18.11;41.91
61710;BME280;73500;51.494;5.386;2024-01-27T10:05:19;103560.47;;;18.16;42.12
61710;BME280;73500;51.494;5.386;2024-01-27T10:07:45;103562.19;;;18.17;42.45
61710;BME280;73500;51.494;5.386;2024-01-27T10:10:10;103535.38;;;18.06;42.32
61710;BME280;73500;51.494;5.386;2024-01-27T10:12:40;103552.38;;;18.21;42.08
61710;BME280;73500;51.494;5.386;2024-01-27T10:15:08;103551.75;;;18.14;42.22
61710;BME280;73500;51.494;5.386;2024-01-27T10:17:42;103540.53;;;18.09;42.23
61710;BME280;73500;51.494;5.386;2024-01-27T10:20:08;103544.81;;;18.11;42.06
61710;BME280;73500;51.494;5.386;2024-01-27T10:22:38;103561.53;;;18.12;42.37
61710;BME280;73500;51.494;5.386;2024-01-27T10:25:05;103575.09;;;18.25;42.87
61710;BME280;73500;51.494;5.386;2024-01-27T10:27:30;103536.34;;;18.03;42.82
61710;BME280;73500;51.494;5.386;2024-01-27T10:29:55;103561.91;;;18.25;42.54
61710;BME280;73500;51.494;5.386;2024-01-27T10:32:21;103545.56;;;18.15;42.59
61710;BME280;73500;51.494;5.386;2024-01-27T10:35:10;103569.78;;;18.26;42.73
61710;BME280;73500;51.494;5.386;2024-01-27T10:37:38;103575.03;;;18.26;42.39
61710;BME280;73500;51.494;5.386;2024-01-27T10:40:06;103551.75;;;18.14;42.54
61710;BME280;73500;51.494;5.386;2024-01-27T10:42:36;103563.72;;;18.23;42.64
61710;BME280;73500;51.494;5.386;2024-01-27T10:45:03;103565.44;;;18.24;42.48
61710;BME280;73500;51.494;5.386;2024-01-27T10:47:30;103507.78;;;17.91;42.70
61710;BME280;73500;51.494;5.386;2024-01-27T10:49:57;103559.31;;;18.23;42.76
61710;BME280;73500;51.494;5.386;2024-01-27T10:52:32;103560.06;;;18.27;42.84
61710;BME280;73500;51.494;5.386;2024-01-27T10:55:03;103547.31;;;18.15;42.90
61710;BME280;73500;51.494;5.386;2024-01-27T10:57:32;103542.09;;;18.13;42.87
61710;BME280;73500;51.494;5.386;2024-01-27T11:00:00;103540.34;;;18.13;42.64
61710;BME280;73500;51.494;5.386;2024-01-27T11:02:28;103550.41;;;18.26;42.81
61710;BME280;73500;51.494;5.386;2024-01-27T11:04:58;103553.03;;;18.26;43.12
61710;BME280;73500;51.494;5.386;2024-01-27T11:07:25;103528.78;;;18.16;43.10
61710;BME280;73500;51.494;5.386;2024-01-27T11:09:50;103536.41;;;18.24;43.02
61710;BME280;73500;51.494;5.386;2024-01-27T11:12:19;103519.25;;;18.13;43.54
61710;BME280;73500;51.494;5.386;2024-01-27T11:14:47;103521.75;;;18.17;43.18
61710;BME280;73500;51.494;5.386;2024-01-27T11:17:12;103518.19;;;18.18;43.41
61710;BME280;73500;51.494;5.386;2024-01-27T11:19:39;103518.25;;;18.16;43.41
61710;BME280;73500;51.494;5.386;2024-01-27T11:22:05;103524.13;;;18.23;43.06
61710;BME280;73500;51.494;5.386;2024-01-27T11:24:31;103528.44;;;18.25;43.39
61710;BME280;73500;51.494;5.386;2024-01-27T11:27:03;103544.16;;;18.28;43.61
61710;BME280;73500;51.494;5.386;2024-01-27T11:29:29;103542.25;;;18.32;44.11
61710;BME280;73500;51.494;5.386;2024-01-27T11:31:57;103542.19;;;18.34;43.90
61710;BME280;73500;51.494;5.386;2024-01-27T11:34:23;103535.28;;;18.31;44.09
61710;BME280;73500;51.494;5.386;2024-01-27T11:36:48;103498.19;;;18.12;43.90
61710;BME280;73500;51.494;5.386;2024-01-27T11:39:27;103526.72;;;18.24;43.63
61710;BME280;73500;51.494;5.386;2024-01-27T11:42:04;103522.00;;;18.33;43.73
61710;BME280;73500;51.494;5.386;2024-01-27T11:44:30;103513.50;;;18.24;43.66
61710;BME280;73500;51.494;5.386;2024-01-27T11:46:55;103501.25;;;18.23;43.82
61710;BME280;73500;51.494;5.386;2024-01-27T11:49:20;103501.19;;;18.25;43.53
61710;BME280;73500;51.494;5.386;2024-01-27T11:51:46;103492.41;;;18.24;43.64
61710;BME280;73500;51.494;5.386;2024-01-27T11:54:11;103486.19;;;18.25;43.63
61710;BME280;73500;51.494;5.386;2024-01-27T11:56:38;103497.50;;;18.29;43.17
61710;BME280;73500;51.494;5.386;2024-01-27T11:59:03;103499.28;;;18.28;42.79
61710;BME280;73500;51.494;5.386;2024-01-27T12:01:29;103493.94;;;18.30;43.02
61710;BME280;73500;51.494;5.386;2024-01-27T12:03:54;103490.38;;;18.31;42.94
61710;BME280;73500;51.494;5.386;2024-01-27T12:06:19;103515.44;;;18.43;42.70
61710;BME280;73500;51.494;5.386;2024-01-27T12:08:45;103498.19;;;18.34;42.80
61710;BME280;73500;51.494;5.386;2024-01-27T12:11:13;103502.34;;;18.40;42.60
61710;BME280;73500;51.494;5.386;2024-01-27T12:13:38;103511.81;;;18.45;42.59
61710;BME280;73500;51.494;5.386;2024-01-27T12:16:04;103501.50;;;18.39;42.28
61710;BME280;73500;51.494;5.386;2024-01-27T12:18:30;103507.44;;;18.44;42.23
61710;BME280;73500;51.494;5.386;2024-01-27T12:20:56;103514.38;;;18.47;42.42
61710;BME280;73500;51.494;5.386;2024-01-27T12:23:23;103490.13;;;18.37;41.91
61710;BME280;73500;51.494;5.386;2024-01-27T12:25:54;103507.25;;;18.49;42.29
61710;BME280;73500;51.494;5.386;2024-01-27T12:28:23;103498.53;;;18.47;42.16
61710;BME280;73500;51.494;5.386;2024-01-27T12:30:49;103492.63;;;18.40;41.89
61710;BME280;73500;51.494;5.386;2024-01-27T12:33:16;103508.81;;;18.53;42.04
61710;BME280;73500;51.494;5.386;2024-01-27T12:35:45;103471.50;;;18.40;42.31
61710;BME280;73500;51.494;5.386;2024-01-27T12:38:11;103492.13;;;18.53;41.90
61710;BME280;73500;51.494;5.386;2024-01-27T12:40:37;103483.31;;;18.54;41.92
61710;BME280;73500;51.494;5.386;2024-01-27T12:43:03;103469.56;;;18.45;41.72